Main page
METAR-TAF:

METAR-TAF

Airports :

Doha International Airport

Doha, Qatar

latitude: 25-15-40N, longitude: 051-33-54E, elevation: 11 m

Current weather observation

The report was made 22 minutes ago, at 13:30 UTC
Wind 10 kt from the North
Temperature 23°C
Humidity 65%
Pressure 1015 hPa
Visibility: 9000 m

METAR: OTBD 181330Z 01010KT 9000 NSC 23/16 Q1015 NOSIG

Time: 16:52 (13:52 UTC)

Forecast

The report was made 2 hours and 50 minutes ago, at 11:02 UTC
Forecast valid from 18 at 12 UTC to 19 at 18 UTC
Wind 11 kt from the Northeast
Visibility: 9000 m
Becoming
from 18 at 16 UTC to 18 at 18 UTC
Wind 12 kt from the North/Northwest

TAF: OTBD 181102Z 1812/1918 04011KT 9000 NSC BECMG 1816/1818 33012KT

Weather observations and forecasts of more than 4000 airports (METAR and TAF reports).

The available stations are represented by yellow and red dots on the map.

Hover mouse over dot to see the name of the station.

Then click to see weather observations and forecasts.

To change the map : click on the green buttons with a black cross to zoom in, on the green button with a dash to zoom out, or on the green arrows for adjacent maps.


METAR-TAF: